sensor_id;sensor_type;location;lat;lon;timestamp;P1;durP1;ratioP1;P2;durP2;ratioP2
68225;SDS011;55045;49.410;11.030;2023-02-28T00:00:27;6.70;;;3.90;;
68225;SDS011;55045;49.410;11.030;2023-02-28T00:03:31;4.32;;;3.33;;
68225;SDS011;55045;49.410;11.030;2023-02-28T00:06:38;5.63;;;4.00;;
68225;SDS011;55045;49.410;11.030;2023-02-28T00:09:41;6.07;;;3.88;;
68225;SDS011;55045;49.410;11.030;2023-02-28T00:12:44;5.88;;;3.90;;
68225;SDS011;55045;49.410;11.030;2023-02-28T00:15:47;4.70;;;3.80;;
68225;SDS011;55045;49.410;11.030;2023-02-28T00:19:01;5.00;;;4.00;;
68225;SDS011;55045;49.410;11.030;2023-02-28T00:22:06;5.18;;;3.25;;
68225;SDS011;55045;49.410;11.030;2023-02-28T00:25:10;7.55;;;4.28;;
68225;SDS011;55045;49.410;11.030;2023-02-28T00:28:15;6.75;;;4.60;;
68225;SDS011;55045;49.410;11.030;2023-02-28T00:31:18;6.70;;;4.22;;
68225;SDS011;55045;49.410;11.030;2023-02-28T00:34:22;6.88;;;4.10;;
68225;SDS011;55045;49.410;11.030;2023-02-28T00:37:28;6.57;;;4.05;;
68225;SDS011;55045;49.410;11.030;2023-02-28T00:40:32;6.88;;;4.57;;
68225;SDS011;55045;49.410;11.030;2023-02-28T00:43:36;7.32;;;4.32;;
68225;SDS011;55045;49.410;11.030;2023-02-28T00:46:40;6.03;;;4.35;;
68225;SDS011;55045;49.410;11.030;2023-02-28T00:49:43;5.97;;;4.38;;
68225;SDS011;55045;49.410;11.030;2023-02-28T00:52:48;5.90;;;4.13;;
68225;SDS011;55045;49.410;11.030;2023-02-28T00:55:51;7.43;;;4.50;;
68225;SDS011;55045;49.410;11.030;2023-02-28T00:58:54;8.80;;;4.28;;
68225;SDS011;55045;49.410;11.030;2023-02-28T01:01:57;6.40;;;4.43;;
68225;SDS011;55045;49.410;11.030;2023-02-28T01:05:01;7.03;;;4.35;;
68225;SDS011;55045;49.410;11.030;2023-02-28T01:08:06;7.93;;;4.88;;
68225;SDS011;55045;49.410;11.030;2023-02-28T01:11:09;9.93;;;5.00;;
68225;SDS011;55045;49.410;11.030;2023-02-28T01:14:15;5.80;;;4.20;;
68225;SDS011;55045;49.410;11.030;2023-02-28T01:17:20;7.55;;;4.60;;
68225;SDS011;55045;49.410;11.030;2023-02-28T01:20:23;6.22;;;4.07;;
68225;SDS011;55045;49.410;11.030;2023-02-28T01:23:28;8.20;;;4.45;;
68225;SDS011;55045;49.410;11.030;2023-02-28T01:26:31;10.60;;;4.55;;
68225;SDS011;55045;49.410;11.030;2023-02-28T01:29:34;7.32;;;4.63;;
68225;SDS011;55045;49.410;11.030;2023-02-28T01:32:37;6.85;;;4.28;;
68225;SDS011;55045;49.410;11.030;2023-02-28T01:35:41;7.13;;;4.90;;
68225;SDS011;55045;49.410;11.030;2023-02-28T01:38:45;8.07;;;4.80;;
68225;SDS011;55045;49.410;11.030;2023-02-28T01:41:49;8.50;;;4.30;;
68225;SDS011;55045;49.410;11.030;2023-02-28T01:45:01;5.78;;;4.00;;
68225;SDS011;55045;49.410;11.030;2023-02-28T01:48:09;9.57;;;4.30;;
68225;SDS011;55045;49.410;11.030;2023-02-28T01:51:14;7.45;;;4.50;;
68225;SDS011;55045;49.410;11.030;2023-02-28T01:54:22;8.18;;;4.80;;
68225;SDS011;55045;49.410;11.030;2023-02-28T01:57:29;6.28;;;4.45;;
68225;SDS011;55045;49.410;11.030;2023-02-28T02:00:39;8.32;;;4.97;;
68225;SDS011;55045;49.410;11.030;2023-02-28T02:03:44;8.68;;;4.82;;
68225;SDS011;55045;49.410;11.030;2023-02-28T02:06:48;7.88;;;4.75;;
68225;SDS011;55045;49.410;11.030;2023-02-28T02:09:59;10.57;;;4.70;;
68225;SDS011;55045;49.410;11.030;2023-02-28T02:13:17;7.68;;;4.90;;
68225;SDS011;55045;49.410;11.030;2023-02-28T02:16:35;7.85;;;4.57;;
68225;SDS011;55045;49.410;11.030;2023-02-28T02:20:05;7.95;;;4.53;;
68225;SDS011;55045;49.410;11.030;2023-02-28T02:27:19;8.13;;;4.75;;
68225;SDS011;55045;49.410;11.030;2023-02-28T02:37:56;9.35;;;5.15;;
68225;SDS011;55045;49.410;11.030;2023-02-28T02:41:08;7.32;;;4.78;;
68225;SDS011;55045;49.410;11.030;2023-02-28T02:44:18;8.15;;;4.75;;
68225;SDS011;55045;49.410;11.030;2023-02-28T02:47:26;6.82;;;5.10;;
68225;SDS011;55045;49.410;11.030;2023-02-28T02:50:35;11.30;;;5.13;;
68225;SDS011;55045;49.410;11.030;2023-02-28T02:53:42;8.25;;;4.85;;
68225;SDS011;55045;49.410;11.030;2023-02-28T02:56:50;7.88;;;5.05;;
68225;SDS011;55045;49.410;11.030;2023-02-28T02:59:55;9.50;;;5.15;;
68225;SDS011;55045;49.410;11.030;2023-02-28T03:03:00;9.50;;;5.13;;
68225;SDS011;55045;49.410;11.030;2023-02-28T03:06:05;8.57;;;5.47;;
68225;SDS011;55045;49.410;11.030;2023-02-28T03:09:12;8.77;;;5.28;;
68225;SDS011;55045;49.410;11.030;2023-02-28T03:12:15;9.40;;;5.22;;
68225;SDS011;55045;49.410;11.030;2023-02-28T03:15:19;8.75;;;5.65;;
68225;SDS011;55045;49.410;11.030;2023-02-28T03:18:32;11.05;;;5.90;;
68225;SDS011;55045;49.410;11.030;2023-02-28T03:21:45;8.90;;;5.90;;
68225;SDS011;55045;49.410;11.030;2023-02-28T03:24:57;9.50;;;5.60;;
68225;SDS011;55045;49.410;11.030;2023-02-28T03:28:09;8.65;;;5.20;;
68225;SDS011;55045;49.410;11.030;2023-02-28T03:31:19;13.23;;;5.78;;
68225;SDS011;55045;49.410;11.030;2023-02-28T03:34:29;10.32;;;6.50;;
68225;SDS011;55045;49.410;11.030;2023-02-28T03:37:38;13.85;;;6.22;;
68225;SDS011;55045;49.410;11.030;2023-02-28T03:40:46;9.23;;;6.40;;
68225;SDS011;55045;49.410;11.030;2023-02-28T03:43:53;7.90;;;6.22;;
68225;SDS011;55045;49.410;11.030;2023-02-28T03:47:00;10.95;;;6.63;;
68225;SDS011;55045;49.410;11.030;2023-02-28T03:53:13;10.20;;;6.60;;
68225;SDS011;55045;49.410;11.030;2023-02-28T03:56:22;12.10;;;7.10;;
68225;SDS011;55045;49.410;11.030;2023-02-28T03:59:32;10.40;;;7.47;;
68225;SDS011;55045;49.410;11.030;2023-02-28T04:02:39;11.45;;;7.47;;
68225;SDS011;55045;49.410;11.030;2023-02-28T04:05:47;9.98;;;7.15;;
68225;SDS011;55045;49.410;11.030;2023-02-28T04:08:54;10.35;;;7.35;;
68225;SDS011;55045;49.410;11.030;2023-02-28T04:11:58;12.57;;;7.97;;
68225;SDS011;55045;49.410;11.030;2023-02-28T04:15:01;10.10;;;7.40;;
68225;SDS011;55045;49.410;11.030;2023-02-28T04:18:04;13.13;;;8.27;;
68225;SDS011;55045;49.410;11.030;2023-02-28T04:21:08;11.93;;;8.20;;
68225;SDS011;55045;49.410;11.030;2023-02-28T04:24:15;9.20;;;6.78;;
68225;SDS011;55045;49.410;11.030;2023-02-28T04:27:19;13.82;;;7.60;;
68225;SDS011;55045;49.410;11.030;2023-02-28T04:34:25;12.77;;;7.47;;
68225;SDS011;55045;49.410;11.030;2023-02-28T04:37:29;12.85;;;7.90;;
68225;SDS011;55045;49.410;11.030;2023-02-28T04:40:36;11.75;;;8.38;;
68225;SDS011;55045;49.410;11.030;2023-02-28T04:43:40;12.20;;;7.80;;
68225;SDS011;55045;49.410;11.030;2023-02-28T04:46:43;11.88;;;8.15;;
68225;SDS011;55045;49.410;11.030;2023-02-28T04:49:48;10.38;;;7.80;;
68225;SDS011;55045;49.410;11.030;2023-02-28T04:52:51;11.68;;;7.75;;
68225;SDS011;55045;49.410;11.030;2023-02-28T04:55:54;12.80;;;8.10;;
68225;SDS011;55045;49.410;11.030;2023-02-28T04:59:01;13.05;;;8.45;;
68225;SDS011;55045;49.410;11.030;2023-02-28T05:02:04;10.88;;;7.18;;
68225;SDS011;55045;49.410;11.030;2023-02-28T05:05:10;12.35;;;7.70;;
68225;SDS011;55045;49.410;11.030;2023-02-28T05:08:13;12.95;;;7.70;;
68225;SDS011;55045;49.410;11.030;2023-02-28T05:11:17;11.43;;;7.38;;
68225;SDS011;55045;49.410;11.030;2023-02-28T05:14:22;10.20;;;7.10;;
68225;SDS011;55045;49.410;11.030;2023-02-28T05:17:25;11.23;;;7.35;;
68225;SDS011;55045;49.410;11.030;2023-02-28T05:20:30;12.77;;;8.13;;
68225;SDS011;55045;49.410;11.030;2023-02-28T05:23:33;11.85;;;7.05;;
68225;SDS011;55045;49.410;11.030;2023-02-28T05:26:37;15.30;;;8.48;;
68225;SDS011;55045;49.410;11.030;2023-02-28T05:29:41;14.45;;;8.38;;
68225;SDS011;55045;49.410;11.030;2023-02-28T05:32:49;15.48;;;7.72;;
68225;SDS011;55045;49.410;11.030;2023-02-28T05:35:55;16.40;;;8.50;;
68225;SDS011;55045;49.410;11.030;2023-02-28T05:38:58;13.40;;;7.90;;
68225;SDS011;55045;49.410;11.030;2023-02-28T05:42:02;12.93;;;7.50;;
68225;SDS011;55045;49.410;11.030;2023-02-28T05:45:05;11.65;;;7.55;;
68225;SDS011;55045;49.410;11.030;2023-02-28T05:48:09;13.32;;;7.70;;
68225;SDS011;55045;49.410;11.030;2023-02-28T05:51:14;12.80;;;6.75;;
68225;SDS011;55045;49.410;11.030;2023-02-28T05:54:18;13.90;;;7.70;;
68225;SDS011;55045;49.410;11.030;2023-02-28T05:57:21;12.48;;;7.50;;
68225;SDS011;55045;49.410;11.030;2023-02-28T06:00:25;14.45;;;7.75;;
68225;SDS011;55045;49.410;11.030;2023-02-28T06:03:29;11.00;;;6.97;;
68225;SDS011;55045;49.410;11.030;2023-02-28T06:06:34;12.23;;;7.93;;
68225;SDS011;55045;49.410;11.030;2023-02-28T06:09:38;12.85;;;8.73;;
68225;SDS011;55045;49.410;11.030;2023-02-28T06:12:42;13.18;;;8.98;;
68225;SDS011;55045;49.410;11.030;2023-02-28T06:15:45;12.38;;;8.52;;
68225;SDS011;55045;49.410;11.030;2023-02-28T06:18:48;13.02;;;8.45;;
68225;SDS011;55045;49.410;11.030;2023-02-28T06:21:53;13.18;;;8.77;;
68225;SDS011;55045;49.410;11.030;2023-02-28T06:24:58;12.90;;;8.98;;
68225;SDS011;55045;49.410;11.030;2023-02-28T06:28:01;12.45;;;8.07;;
68225;SDS011;55045;49.410;11.030;2023-02-28T06:31:05;12.77;;;8.90;;
68225;SDS011;55045;49.410;11.030;2023-02-28T06:34:10;12.27;;;8.07;;
68225;SDS011;55045;49.410;11.030;2023-02-28T06:37:15;13.88;;;8.10;;
68225;SDS011;55045;49.410;11.030;2023-02-28T06:40:18;19.88;;;11.90;;
68225;SDS011;55045;49.410;11.030;2023-02-28T06:43:22;11.52;;;7.95;;
68225;SDS011;55045;49.410;11.030;2023-02-28T06:46:26;14.98;;;8.55;;
68225;SDS011;55045;49.410;11.030;2023-02-28T06:49:29;14.00;;;7.75;;
68225;SDS011;55045;49.410;11.030;2023-02-28T06:52:34;17.17;;;10.50;;
68225;SDS011;55045;49.410;11.030;2023-02-28T06:55:39;11.32;;;8.05;;
68225;SDS011;55045;49.410;11.030;2023-02-28T06:58:45;13.80;;;7.95;;
68225;SDS011;55045;49.410;11.030;2023-02-28T07:01:53;17.98;;;9.93;;
68225;SDS011;55045;49.410;11.030;2023-02-28T07:04:56;16.23;;;8.55;;
68225;SDS011;55045;49.410;11.030;2023-02-28T07:08:01;13.18;;;9.10;;
68225;SDS011;55045;49.410;11.030;2023-02-28T07:11:04;16.50;;;9.48;;
68225;SDS011;55045;49.410;11.030;2023-02-28T07:14:08;13.60;;;8.93;;
68225;SDS011;55045;49.410;11.030;2023-02-28T07:17:12;16.27;;;8.00;;
68225;SDS011;55045;49.410;11.030;2023-02-28T07:20:15;16.83;;;9.05;;
68225;SDS011;55045;49.410;11.030;2023-02-28T07:23:20;13.68;;;8.73;;
68225;SDS011;55045;49.410;11.030;2023-02-28T07:26:24;12.60;;;7.93;;
68225;SDS011;55045;49.410;11.030;2023-02-28T07:29:27;15.63;;;8.82;;
68225;SDS011;55045;49.410;11.030;2023-02-28T07:32:30;13.25;;;8.32;;
68225;SDS011;55045;49.410;11.030;2023-02-28T07:35:33;11.85;;;7.97;;
68225;SDS011;55045;49.410;11.030;2023-02-28T07:38:38;14.88;;;9.20;;
68225;SDS011;55045;49.410;11.030;2023-02-28T07:41:42;15.27;;;9.13;;
68225;SDS011;55045;49.410;11.030;2023-02-28T07:44:46;15.20;;;9.40;;
68225;SDS011;55045;49.410;11.030;2023-02-28T07:47:49;17.77;;;9.85;;
68225;SDS011;55045;49.410;11.030;2023-02-28T07:50:54;15.38;;;8.88;;
68225;SDS011;55045;49.410;11.030;2023-02-28T07:53:59;13.65;;;9.07;;
68225;SDS011;55045;49.410;11.030;2023-02-28T07:57:02;14.30;;;8.77;;
68225;SDS011;55045;49.410;11.030;2023-02-28T08:00:07;14.10;;;9.00;;
68225;SDS011;55045;49.410;11.030;2023-02-28T08:03:15;14.68;;;9.40;;
68225;SDS011;55045;49.410;11.030;2023-02-28T08:06:20;15.48;;;9.35;;
68225;SDS011;55045;49.410;11.030;2023-02-28T08:09:26;15.80;;;9.27;;
68225;SDS011;55045;49.410;11.030;2023-02-28T08:12:29;13.68;;;8.55;;
68225;SDS011;55045;49.410;11.030;2023-02-28T08:15:32;16.42;;;8.85;;
68225;SDS011;55045;49.410;11.030;2023-02-28T08:18:36;16.27;;;8.85;;
68225;SDS011;55045;49.410;11.030;2023-02-28T08:21:39;14.30;;;8.88;;
68225;SDS011;55045;49.410;11.030;2023-02-28T08:24:44;13.10;;;7.30;;
68225;SDS011;55045;49.410;11.030;2023-02-28T08:27:47;12.88;;;8.13;;
68225;SDS011;55045;49.410;11.030;2023-02-28T08:30:52;13.15;;;8.15;;
68225;SDS011;55045;49.410;11.030;2023-02-28T08:33:56;12.98;;;8.00;;
68225;SDS011;55045;49.410;11.030;2023-02-28T08:37:00;15.98;;;8.65;;
68225;SDS011;55045;49.410;11.030;2023-02-28T08:40:06;12.18;;;8.68;;
68225;SDS011;55045;49.410;11.030;2023-02-28T08:43:10;14.80;;;10.05;;
68225;SDS011;55045;49.410;11.030;2023-02-28T08:46:14;13.57;;;8.70;;
68225;SDS011;55045;49.410;11.030;2023-02-28T08:49:17;14.90;;;8.68;;
68225;SDS011;55045;49.410;11.030;2023-02-28T08:52:20;12.32;;;8.20;;
68225;SDS011;55045;49.410;11.030;2023-02-28T08:55:25;12.18;;;8.55;;
68225;SDS011;55045;49.410;11.030;2023-02-28T08:58:28;15.13;;;7.93;;
68225;SDS011;55045;49.410;11.030;2023-02-28T09:01:32;13.13;;;8.35;;
68225;SDS011;55045;49.410;11.030;2023-02-28T09:04:35;13.32;;;7.10;;
68225;SDS011;55045;49.410;11.030;2023-02-28T09:07:38;12.60;;;7.60;;
68225;SDS011;55045;49.410;11.030;2023-02-28T09:10:43;18.05;;;7.90;;
68225;SDS011;55045;49.410;11.030;2023-02-28T09:13:47;11.48;;;7.40;;
68225;SDS011;55045;49.410;11.030;2023-02-28T09:16:53;12.88;;;8.27;;
68225;SDS011;55045;49.410;11.030;2023-02-28T09:19:56;11.73;;;7.43;;
68225;SDS011;55045;49.410;11.030;2023-02-28T09:22:59;11.48;;;7.97;;
68225;SDS011;55045;49.410;11.030;2023-02-28T09:26:04;14.60;;;8.80;;
68225;SDS011;55045;49.410;11.030;2023-02-28T09:29:07;12.82;;;8.30;;
68225;SDS011;55045;49.410;11.030;2023-02-28T09:32:11;12.02;;;8.15;;
68225;SDS011;55045;49.410;11.030;2023-02-28T09:35:14;16.00;;;8.95;;
68225;SDS011;55045;49.410;11.030;2023-02-28T09:38:18;15.05;;;8.77;;
68225;SDS011;55045;49.410;11.030;2023-02-28T09:41:23;17.00;;;8.52;;
68225;SDS011;55045;49.410;11.030;2023-02-28T09:44:30;14.23;;;8.10;;
68225;SDS011;55045;49.410;11.030;2023-02-28T09:47:38;12.52;;;8.35;;
68225;SDS011;55045;49.410;11.030;2023-02-28T09:50:48;15.38;;;8.63;;
68225;SDS011;55045;49.410;11.030;2023-02-28T09:53:53;11.90;;;7.47;;
68225;SDS011;55045;49.410;11.030;2023-02-28T09:57:06;13.65;;;7.90;;
68225;SDS011;55045;49.410;11.030;2023-02-28T10:00:13;14.07;;;8.68;;
68225;SDS011;55045;49.410;11.030;2023-02-28T10:03:25;10.90;;;7.68;;
68225;SDS011;55045;49.410;11.030;2023-02-28T10:06:33;12.82;;;7.45;;
68225;SDS011;55045;49.410;11.030;2023-02-28T10:09:42;18.05;;;11.13;;
68225;SDS011;55045;49.410;11.030;2023-02-28T10:12:49;13.07;;;8.48;;
68225;SDS011;55045;49.410;11.030;2023-02-28T10:15:57;18.10;;;9.05;;
68225;SDS011;55045;49.410;11.030;2023-02-28T10:19:05;11.52;;;8.15;;
68225;SDS011;55045;49.410;11.030;2023-02-28T10:22:17;17.45;;;10.30;;
68225;SDS011;55045;49.410;11.030;2023-02-28T10:25:24;14.25;;;7.30;;
68225;SDS011;55045;49.410;11.030;2023-02-28T10:28:30;12.30;;;7.63;;
68225;SDS011;55045;49.410;11.030;2023-02-28T10:34:25;11.20;;;7.45;;
68225;SDS011;55045;49.410;11.030;2023-02-28T10:37:28;13.45;;;8.02;;
68225;SDS011;55045;49.410;11.030;2023-02-28T10:40:34;12.40;;;7.35;;
68225;SDS011;55045;49.410;11.030;2023-02-28T10:43:38;12.05;;;7.47;;
68225;SDS011;55045;49.410;11.030;2023-02-28T10:46:43;11.52;;;8.15;;
68225;SDS011;55045;49.410;11.030;2023-02-28T10:49:48;14.38;;;7.90;;
68225;SDS011;55045;49.410;11.030;2023-02-28T10:52:54;10.18;;;6.55;;
68225;SDS011;55045;49.410;11.030;2023-02-28T10:55:58;10.18;;;6.40;;
68225;SDS011;55045;49.410;11.030;2023-02-28T10:59:08;12.40;;;6.28;;
68225;SDS011;55045;49.410;11.030;2023-02-28T11:02:31;12.05;;;7.00;;
68225;SDS011;55045;49.410;11.030;2023-02-28T11:05:46;10.05;;;6.65;;
68225;SDS011;55045;49.410;11.030;2023-02-28T11:08:51;12.68;;;8.77;;
68225;SDS011;55045;49.410;11.030;2023-02-28T11:11:56;12.38;;;8.45;;
68225;SDS011;55045;49.410;11.030;2023-02-28T11:15:00;11.10;;;7.78;;
68225;SDS011;55045;49.410;11.030;2023-02-28T11:18:15;12.20;;;7.03;;
68225;SDS011;55045;49.410;11.030;2023-02-28T11:21:26;14.25;;;7.03;;
68225;SDS011;55045;49.410;11.030;2023-02-28T11:24:33;13.02;;;7.50;;
68225;SDS011;55045;49.410;11.030;2023-02-28T11:27:42;12.82;;;7.80;;
68225;SDS011;55045;49.410;11.030;2023-02-28T11:30:49;12.45;;;7.85;;
68225;SDS011;55045;49.410;11.030;2023-02-28T11:34:21;10.77;;;6.72;;
68225;SDS011;55045;49.410;11.030;2023-02-28T11:37:29;12.63;;;7.60;;
68225;SDS011;55045;49.410;11.030;2023-02-28T11:40:36;11.20;;;7.15;;
68225;SDS011;55045;49.410;11.030;2023-02-28T11:43:52;11.23;;;7.07;;
68225;SDS011;55045;49.410;11.030;2023-02-28T11:47:05;10.50;;;6.93;;
68225;SDS011;55045;49.410;11.030;2023-02-28T11:50:20;12.75;;;6.72;;
68225;SDS011;55045;49.410;11.030;2023-02-28T11:53:39;11.00;;;7.10;;
68225;SDS011;55045;49.410;11.030;2023-02-28T11:57:03;12.55;;;7.55;;
68225;SDS011;55045;49.410;11.030;2023-02-28T12:00:25;12.27;;;7.22;;
68225;SDS011;55045;49.410;11.030;2023-02-28T12:03:39;13.73;;;7.20;;
68225;SDS011;55045;49.410;11.030;2023-02-28T12:06:49;12.90;;;8.00;;
68225;SDS011;55045;49.410;11.030;2023-02-28T12:10:01;10.57;;;7.05;;
68225;SDS011;55045;49.410;11.030;2023-02-28T12:13:16;11.40;;;6.80;;
68225;SDS011;55045;49.410;11.030;2023-02-28T12:16:29;11.85;;;6.55;;
68225;SDS011;55045;49.410;11.030;2023-02-28T12:19:43;9.77;;;6.45;;
68225;SDS011;55045;49.410;11.030;2023-02-28T12:22:53;11.80;;;7.22;;
68225;SDS011;55045;49.410;11.030;2023-02-28T12:26:08;16.48;;;9.48;;
68225;SDS011;55045;49.410;11.030;2023-02-28T12:29:19;11.23;;;7.00;;
68225;SDS011;55045;49.410;11.030;2023-02-28T12:32:27;15.70;;;8.15;;
68225;SDS011;55045;49.410;11.030;2023-02-28T12:35:35;23.95;;;12.43;;
68225;SDS011;55045;49.410;11.030;2023-02-28T12:38:43;15.13;;;8.13;;
68225;SDS011;55045;49.410;11.030;2023-02-28T12:41:51;12.90;;;7.85;;
68225;SDS011;55045;49.410;11.030;2023-02-28T12:44:58;9.13;;;5.97;;
68225;SDS011;55045;49.410;11.030;2023-02-28T12:48:06;11.32;;;6.80;;
68225;SDS011;55045;49.410;11.030;2023-02-28T12:51:15;11.23;;;7.07;;
68225;SDS011;55045;49.410;11.030;2023-02-28T12:54:22;12.98;;;6.95;;
68225;SDS011;55045;49.410;11.030;2023-02-28T12:57:34;10.98;;;6.90;;
68225;SDS011;55045;49.410;11.030;2023-02-28T13:04:23;13.43;;;8.02;;
68225;SDS011;55045;49.410;11.030;2023-02-28T13:07:49;15.07;;;9.07;;
68225;SDS011;55045;49.410;11.030;2023-02-28T13:11:06;10.48;;;7.53;;
68225;SDS011;55045;49.410;11.030;2023-02-28T13:14:24;12.80;;;9.23;;
68225;SDS011;55045;49.410;11.030;2023-02-28T13:17:32;12.75;;;8.07;;
68225;SDS011;55045;49.410;11.030;2023-02-28T13:20:36;12.93;;;9.10;;
68225;SDS011;55045;49.410;11.030;2023-02-28T13:23:57;12.27;;;8.20;;
68225;SDS011;55045;49.410;11.030;2023-02-28T13:34:13;12.55;;;7.47;;
68225;SDS011;55045;49.410;11.030;2023-02-28T13:37:34;11.02;;;7.00;;
68225;SDS011;55045;49.410;11.030;2023-02-28T13:40:40;11.50;;;6.90;;
68225;SDS011;55045;49.410;11.030;2023-02-28T13:43:59;12.25;;;7.35;;
68225;SDS011;55045;49.410;11.030;2023-02-28T13:47:27;13.68;;;7.95;;
68225;SDS011;55045;49.410;11.030;2023-02-28T13:50:33;10.48;;;7.53;;
68225;SDS011;55045;49.410;11.030;2023-02-28T13:53:47;11.63;;;7.38;;
68225;SDS011;55045;49.410;11.030;2023-02-28T13:57:06;10.38;;;6.93;;
68225;SDS011;55045;49.410;11.030;2023-02-28T14:00:23;12.98;;;7.32;;
68225;SDS011;55045;49.410;11.030;2023-02-28T14:03:41;12.10;;;7.25;;
68225;SDS011;55045;49.410;11.030;2023-02-28T14:07:00;13.55;;;7.70;;
68225;SDS011;55045;49.410;11.030;2023-02-28T14:10:05;11.60;;;7.75;;
68225;SDS011;55045;49.410;11.030;2023-02-28T14:13:12;16.77;;;7.70;;
68225;SDS011;55045;49.410;11.030;2023-02-28T14:16:39;13.95;;;8.43;;
68225;SDS011;55045;49.410;11.030;2023-02-28T14:19:45;12.45;;;7.65;;
68225;SDS011;55045;49.410;11.030;2023-02-28T14:22:53;12.23;;;8.13;;
68225;SDS011;55045;49.410;11.030;2023-02-28T14:26:06;12.30;;;8.40;;
68225;SDS011;55045;49.410;11.030;2023-02-28T14:29:27;10.83;;;7.40;;
68225;SDS011;55045;49.410;11.030;2023-02-28T14:32:47;10.45;;;7.50;;
68225;SDS011;55045;49.410;11.030;2023-02-28T14:36:03;11.52;;;7.50;;
68225;SDS011;55045;49.410;11.030;2023-02-28T14:39:11;12.10;;;7.78;;
68225;SDS011;55045;49.410;11.030;2023-02-28T14:42:30;12.05;;;6.95;;
68225;SDS011;55045;49.410;11.030;2023-02-28T14:45:35;12.43;;;7.20;;
68225;SDS011;55045;49.410;11.030;2023-02-28T14:48:39;10.85;;;7.55;;
68225;SDS011;55045;49.410;11.030;2023-02-28T14:51:44;12.32;;;8.18;;
68225;SDS011;55045;49.410;11.030;2023-02-28T14:54:51;11.98;;;7.70;;
68225;SDS011;55045;49.410;11.030;2023-02-28T14:57:56;14.68;;;8.45;;
68225;SDS011;55045;49.410;11.030;2023-02-28T15:01:01;33.63;;;16.30;;
68225;SDS011;55045;49.410;11.030;2023-02-28T15:04:06;12.98;;;8.45;;
68225;SDS011;55045;49.410;11.030;2023-02-28T15:07:25;11.27;;;8.15;;
68225;SDS011;55045;49.410;11.030;2023-02-28T15:10:32;12.15;;;8.55;;
68225;SDS011;55045;49.410;11.030;2023-02-28T15:13:37;14.65;;;8.68;;
68225;SDS011;55045;49.410;11.030;2023-02-28T15:16:43;15.18;;;9.80;;
68225;SDS011;55045;49.410;11.030;2023-02-28T15:19:50;13.65;;;8.07;;
68225;SDS011;55045;49.410;11.030;2023-02-28T15:22:57;18.40;;;9.88;;
68225;SDS011;55045;49.410;11.030;2023-02-28T15:26:01;12.70;;;7.97;;
68225;SDS011;55045;49.410;11.030;2023-02-28T15:29:07;16.33;;;10.20;;
68225;SDS011;55045;49.410;11.030;2023-02-28T15:32:25;13.15;;;8.65;;
68225;SDS011;55045;49.410;11.030;2023-02-28T15:35:32;31.58;;;16.00;;
68225;SDS011;55045;49.410;11.030;2023-02-28T15:38:37;16.42;;;9.50;;
68225;SDS011;55045;49.410;11.030;2023-02-28T15:41:40;35.80;;;16.45;;
68225;SDS011;55045;49.410;11.030;2023-02-28T15:44:44;17.20;;;10.23;;
68225;SDS011;55045;49.410;11.030;2023-02-28T15:47:47;31.80;;;15.38;;
68225;SDS011;55045;49.410;11.030;2023-02-28T15:50:51;13.00;;;8.95;;
68225;SDS011;55045;49.410;11.030;2023-02-28T15:54:02;24.38;;;13.48;;
68225;SDS011;55045;49.410;11.030;2023-02-28T15:57:11;10.68;;;8.10;;
68225;SDS011;55045;49.410;11.030;2023-02-28T16:00:19;14.70;;;9.25;;
68225;SDS011;55045;49.410;11.030;2023-02-28T16:03:26;12.23;;;8.45;;
68225;SDS011;55045;49.410;11.030;2023-02-28T16:06:37;14.13;;;8.88;;
68225;SDS011;55045;49.410;11.030;2023-02-28T16:09:45;17.88;;;10.57;;
68225;SDS011;55045;49.410;11.030;2023-02-28T16:12:48;20.63;;;11.75;;
68225;SDS011;55045;49.410;11.030;2023-02-28T16:15:52;21.80;;;11.75;;
68225;SDS011;55045;49.410;11.030;2023-02-28T16:18:56;20.17;;;11.55;;
68225;SDS011;55045;49.410;11.030;2023-02-28T16:21:59;20.95;;;10.93;;
68225;SDS011;55045;49.410;11.030;2023-02-28T16:25:04;15.65;;;9.32;;
68225;SDS011;55045;49.410;11.030;2023-02-28T16:28:12;21.08;;;11.65;;
68225;SDS011;55045;49.410;11.030;2023-02-28T16:34:25;16.17;;;9.50;;
68225;SDS011;55045;49.410;11.030;2023-02-28T16:37:29;15.70;;;9.18;;
68225;SDS011;55045;49.410;11.030;2023-02-28T16:40:33;15.70;;;9.27;;
68225;SDS011;55045;49.410;11.030;2023-02-28T16:43:38;14.82;;;8.40;;
68225;SDS011;55045;49.410;11.030;2023-02-28T16:46:42;15.63;;;8.93;;
68225;SDS011;55045;49.410;11.030;2023-02-28T16:49:47;19.08;;;8.55;;
68225;SDS011;55045;49.410;11.030;2023-02-28T16:52:50;16.10;;;8.65;;
68225;SDS011;55045;49.410;11.030;2023-02-28T16:55:56;12.80;;;8.43;;
68225;SDS011;55045;49.410;11.030;2023-02-28T16:58:59;14.02;;;7.95;;
68225;SDS011;55045;49.410;11.030;2023-02-28T17:02:07;14.60;;;9.00;;
68225;SDS011;55045;49.410;11.030;2023-02-28T17:05:15;14.55;;;8.90;;
68225;SDS011;55045;49.410;11.030;2023-02-28T17:08:19;15.80;;;9.10;;
68225;SDS011;55045;49.410;11.030;2023-02-28T17:11:22;17.33;;;9.35;;
68225;SDS011;55045;49.410;11.030;2023-02-28T17:14:27;15.20;;;9.60;;
68225;SDS011;55045;49.410;11.030;2023-02-28T17:17:30;16.40;;;9.07;;
68225;SDS011;55045;49.410;11.030;2023-02-28T17:20:35;14.73;;;8.95;;
68225;SDS011;55045;49.410;11.030;2023-02-28T17:23:38;14.27;;;8.95;;
68225;SDS011;55045;49.410;11.030;2023-02-28T17:26:41;20.23;;;9.77;;
68225;SDS011;55045;49.410;11.030;2023-02-28T17:29:45;20.98;;;10.02;;
68225;SDS011;55045;49.410;11.030;2023-02-28T17:32:48;16.02;;;10.23;;
68225;SDS011;55045;49.410;11.030;2023-02-28T17:35:53;19.80;;;11.50;;
68225;SDS011;55045;49.410;11.030;2023-02-28T17:38:56;21.23;;;11.10;;
68225;SDS011;55045;49.410;11.030;2023-02-28T17:42:00;20.58;;;10.35;;
68225;SDS011;55045;49.410;11.030;2023-02-28T17:45:03;18.55;;;9.82;;
68225;SDS011;55045;49.410;11.030;2023-02-28T17:48:08;16.13;;;9.88;;
68225;SDS011;55045;49.410;11.030;2023-02-28T17:51:15;19.67;;;10.85;;
68225;SDS011;55045;49.410;11.030;2023-02-28T17:54:19;21.92;;;11.48;;
68225;SDS011;55045;49.410;11.030;2023-02-28T17:57:23;22.30;;;12.32;;
68225;SDS011;55045;49.410;11.030;2023-02-28T18:00:26;22.30;;;11.85;;
68225;SDS011;55045;49.410;11.030;2023-02-28T18:03:29;33.50;;;18.10;;
68225;SDS011;55045;49.410;11.030;2023-02-28T18:06:35;39.47;;;19.77;;
68225;SDS011;55045;49.410;11.030;2023-02-28T18:09:47;23.73;;;12.77;;
68225;SDS011;55045;49.410;11.030;2023-02-28T18:12:54;22.92;;;12.88;;
68225;SDS011;55045;49.410;11.030;2023-02-28T18:15:57;35.75;;;18.00;;
68225;SDS011;55045;49.410;11.030;2023-02-28T18:19:01;102.05;;;35.30;;
68225;SDS011;55045;49.410;11.030;2023-02-28T18:22:06;40.42;;;18.20;;
68225;SDS011;55045;49.410;11.030;2023-02-28T18:25:09;23.25;;;12.02;;
68225;SDS011;55045;49.410;11.030;2023-02-28T18:28:15;20.25;;;12.43;;
68225;SDS011;55045;49.410;11.030;2023-02-28T18:31:18;20.67;;;11.95;;
68225;SDS011;55045;49.410;11.030;2023-02-28T18:34:22;21.17;;;11.35;;
68225;SDS011;55045;49.410;11.030;2023-02-28T18:37:27;20.27;;;11.98;;
68225;SDS011;55045;49.410;11.030;2023-02-28T18:40:31;20.50;;;11.10;;
68225;SDS011;55045;49.410;11.030;2023-02-28T18:43:35;24.08;;;11.90;;
68225;SDS011;55045;49.410;11.030;2023-02-28T18:46:39;23.08;;;12.98;;
68225;SDS011;55045;49.410;11.030;2023-02-28T18:49:43;22.83;;;11.90;;